createdAt,value
2019-03-19T00:00:53.663Z,17.60
2019-03-19T00:01:53.651Z,18.60
2019-03-19T00:02:53.618Z,18.20
2019-03-19T00:03:53.614Z,17.90
2019-03-19T00:04:53.591Z,13.70
2019-03-19T00:05:53.583Z,17.80
2019-03-19T00:06:53.593Z,14.80
2019-03-19T00:07:53.559Z,15.00
2019-03-19T00:08:53.542Z,22.90
2019-03-19T00:09:53.554Z,19.00
2019-03-19T00:10:53.529Z,22.00
2019-03-19T00:11:53.514Z,20.60
2019-03-19T00:12:53.503Z,23.40
2019-03-19T00:13:53.488Z,23.50
2019-03-19T00:14:53.527Z,21.40
2019-03-19T00:15:53.500Z,19.90
2019-03-19T00:16:53.467Z,19.30
2019-03-19T00:17:53.456Z,20.80
2019-03-19T00:18:53.432Z,17.90
2019-03-19T00:19:53.437Z,22.30
2019-03-19T00:20:53.443Z,22.10
2019-03-19T00:21:53.425Z,18.60
2019-03-19T00:22:53.401Z,21.70
2019-03-19T00:23:53.440Z,22.70
2019-03-19T00:24:53.370Z,22.20
2019-03-19T00:25:53.361Z,18.70
2019-03-19T00:26:53.349Z,25.00
2019-03-19T00:27:53.357Z,29.10
2019-03-19T00:28:53.344Z,25.00
2019-03-19T00:29:53.366Z,18.40
2019-03-19T00:30:53.318Z,21.50
2019-03-19T00:31:53.291Z,22.80
2019-03-19T00:32:53.293Z,20.10
2019-03-19T00:33:53.299Z,19.50
2019-03-19T00:34:53.264Z,19.80
2019-03-19T00:35:53.262Z,17.40
2019-03-19T00:36:53.235Z,18.40
2019-03-19T00:37:53.225Z,22.00
2019-03-19T00:38:53.235Z,18.70
2019-03-19T00:39:53.237Z,18.80
2019-03-19T00:40:53.210Z,22.70
2019-03-19T00:41:53.185Z,22.30
2019-03-19T00:42:53.176Z,20.80
2019-03-19T00:43:53.186Z,21.20
2019-03-19T00:44:53.153Z,20.30
2019-03-19T00:45:53.165Z,21.30
2019-03-19T00:46:53.121Z,20.80
2019-03-19T00:47:53.117Z,20.10
2019-03-19T00:48:53.118Z,17.70
2019-03-19T00:49:53.102Z,22.10
2019-03-19T00:50:53.080Z,20.90
2019-03-19T00:51:53.138Z,19.40
2019-03-19T00:52:53.058Z,20.30
2019-03-19T00:53:53.049Z,19.30
2019-03-19T00:54:53.057Z,20.30
2019-03-19T00:55:53.032Z,21.10
2019-03-19T00:56:53.011Z,23.20
2019-03-19T00:57:53.033Z,19.60
2019-03-19T00:58:53.006Z,16.40
2019-03-19T00:59:52.983Z,18.80
2019-03-19T01:00:52.974Z,19.60
2019-03-19T01:01:52.966Z,21.70
2019-03-19T01:02:52.945Z,23.40
2019-03-19T01:03:52.968Z,17.20
2019-03-19T01:04:52.930Z,20.50
2019-03-19T01:05:52.936Z,15.40
2019-03-19T01:06:52.922Z,19.80
2019-03-19T01:07:52.898Z,17.50
2019-03-19T01:08:52.879Z,22.30
2019-03-19T01:09:52.886Z,21.50
2019-03-19T01:10:52.857Z,17.20
2019-03-19T01:11:52.850Z,16.00
2019-03-19T01:12:52.833Z,17.70
2019-03-19T01:13:52.828Z,20.20
2019-03-19T01:14:52.823Z,14.30
2019-03-19T01:15:52.824Z,17.90
2019-03-19T01:16:52.794Z,18.60
2019-03-19T01:17:52.794Z,15.40
2019-03-19T01:18:52.771Z,20.70
2019-03-19T01:19:52.764Z,21.20
2019-03-19T01:21:07.412Z,18.80
2019-03-19T01:21:52.766Z,18.60
2019-03-19T01:22:52.724Z,20.30
2019-03-19T01:23:52.753Z,18.40
2019-03-19T01:24:52.697Z,18.30
2019-03-19T01:25:55.629Z,15.90
2019-03-19T01:26:52.683Z,21.40
2019-03-19T01:27:52.685Z,18.10
2019-03-19T01:28:52.662Z,16.00
2019-03-19T01:29:52.673Z,17.90
2019-03-19T01:30:52.638Z,16.40
2019-03-19T01:31:52.632Z,15.60
2019-03-19T01:32:52.614Z,20.80
2019-03-19T01:33:52.655Z,17.30
2019-03-19T01:34:52.610Z,16.40
2019-03-19T01:35:52.576Z,19.40
2019-03-19T01:36:52.582Z,19.40
2019-03-19T01:37:52.561Z,14.80
2019-03-19T01:38:52.558Z,17.40
2019-03-19T01:39:52.574Z,19.30
2019-03-19T01:40:52.528Z,20.70
2019-03-19T01:41:52.512Z,18.80
2019-03-19T01:42:52.506Z,17.70
2019-03-19T01:43:52.491Z,20.40
2019-03-19T01:44:52.483Z,17.40
2019-03-19T01:45:52.496Z,18.10
2019-03-19T01:46:52.483Z,19.70
2019-03-19T01:47:52.452Z,18.70
2019-03-19T01:48:52.434Z,17.60
2019-03-19T01:49:52.440Z,18.20
2019-03-19T01:50:52.420Z,16.40
2019-03-19T01:51:52.426Z,18.10
2019-03-19T01:52:52.392Z,22.30
2019-03-19T01:53:52.385Z,21.40
2019-03-19T01:54:52.386Z,18.60
2019-03-19T01:55:52.359Z,18.70
2019-03-19T01:56:52.349Z,17.80
2019-03-19T01:57:52.358Z,16.50
2019-03-19T01:58:52.358Z,22.00
2019-03-19T01:59:52.354Z,20.20
2019-03-19T02:00:52.305Z,16.40
2019-03-19T02:01:52.291Z,18.50
2019-03-19T02:02:52.319Z,17.70
2019-03-19T02:03:52.299Z,14.50
2019-03-19T02:04:52.278Z,21.10
2019-03-19T02:05:52.248Z,19.00
2019-03-19T02:06:52.276Z,18.60
2019-03-19T02:07:52.227Z,17.50
2019-03-19T02:08:52.239Z,17.70
2019-03-19T02:09:52.235Z,17.00
2019-03-19T02:10:52.195Z,19.00
2019-03-19T02:11:52.244Z,19.20
2019-03-19T02:12:52.182Z,18.10
2019-03-19T02:13:52.173Z,17.60
2019-03-19T02:14:52.167Z,21.30
2019-03-19T02:15:52.164Z,16.50
2019-03-19T02:16:52.131Z,13.70
2019-03-19T02:17:52.119Z,18.10
2019-03-19T02:18:52.106Z,17.10
2019-03-19T02:19:52.098Z,15.20
2019-03-19T02:20:52.083Z,13.50
2019-03-19T02:21:52.105Z,18.50
2019-03-19T02:22:52.061Z,18.10
2019-03-19T02:23:52.064Z,15.60
2019-03-19T02:24:52.049Z,19.20
2019-03-19T02:25:52.024Z,19.60
2019-03-19T02:26:52.018Z,24.20
2019-03-19T02:27:52.022Z,15.50
2019-03-19T02:28:51.993Z,16.70
2019-03-19T02:29:51.996Z,16.60
2019-03-19T02:30:51.969Z,15.10
2019-03-19T02:31:51.972Z,21.10
2019-03-19T02:32:51.989Z,17.70
2019-03-19T02:33:51.955Z,16.60
2019-03-19T02:34:51.926Z,17.80
2019-03-19T02:35:51.945Z,17.10
2019-03-19T02:36:51.919Z,18.40
2019-03-19T02:37:51.916Z,20.10
2019-03-19T02:38:51.884Z,18.50
2019-03-19T02:39:51.935Z,15.90
2019-03-19T02:40:51.881Z,18.60
2019-03-19T02:41:51.890Z,20.70
2019-03-19T02:42:51.841Z,19.80
2019-03-19T02:43:51.833Z,15.40
2019-03-19T02:44:51.830Z,17.80
2019-03-19T02:45:51.845Z,16.60
2019-03-19T02:46:51.798Z,14.30
2019-03-19T02:47:51.789Z,19.70
2019-03-19T02:48:51.774Z,16.10
2019-03-19T02:49:51.763Z,16.60
2019-03-19T02:50:51.755Z,14.00
2019-03-19T02:51:51.761Z,18.60
2019-03-19T02:52:51.741Z,17.00
2019-03-19T02:53:51.730Z,21.50
2019-03-19T02:54:51.703Z,15.60
2019-03-19T02:55:51.693Z,16.70
2019-03-19T02:56:51.685Z,17.40
2019-03-19T02:57:51.708Z,18.00
2019-03-19T02:58:51.665Z,18.50
2019-03-19T02:59:51.665Z,15.80
2019-03-19T03:00:51.656Z,14.60
2019-03-19T03:01:51.664Z,16.20
2019-03-19T03:02:51.622Z,16.90
2019-03-19T03:03:51.636Z,16.90
2019-03-19T03:04:51.602Z,21.50
2019-03-19T03:05:51.582Z,20.50
2019-03-19T03:06:51.606Z,23.50
2019-03-19T03:07:51.566Z,21.70
2019-03-19T03:08:51.602Z,20.10
2019-03-19T03:09:51.567Z,19.10
2019-03-19T03:10:51.531Z,16.50
2019-03-19T03:11:51.523Z,20.10
2019-03-19T03:12:51.508Z,19.30
2019-03-19T03:13:51.501Z,16.00
2019-03-19T03:14:51.507Z,16.60
2019-03-19T03:15:51.491Z,18.50
2019-03-19T03:16:51.465Z,17.90
2019-03-19T03:17:51.459Z,18.80
2019-03-19T03:18:51.467Z,19.60
2019-03-19T03:19:51.456Z,20.10
2019-03-19T03:20:51.437Z,18.90
2019-03-19T03:21:51.427Z,16.20
2019-03-19T03:22:51.404Z,19.30
2019-03-19T03:23:51.408Z,18.90
2019-03-19T03:24:51.380Z,19.10
2019-03-19T03:25:51.363Z,17.50
2019-03-19T03:26:51.358Z,22.30
2019-03-19T03:27:51.367Z,18.20
2019-03-19T03:28:51.456Z,18.90
2019-03-19T03:29:51.322Z,24.30
2019-03-19T03:30:51.316Z,21.50
2019-03-19T03:31:51.330Z,20.00
2019-03-19T03:32:51.408Z,19.70
2019-03-19T03:33:51.312Z,18.60
2019-03-19T03:34:51.275Z,21.10
2019-03-19T03:35:51.281Z,20.70
2019-03-19T03:36:51.273Z,26.80
2019-03-19T03:37:51.260Z,20.30
2019-03-19T03:38:51.239Z,20.10
2019-03-19T03:39:51.251Z,20.10
2019-03-19T03:40:51.217Z,22.00
2019-03-19T03:41:51.194Z,19.60
2019-03-19T03:42:51.184Z,19.30
2019-03-19T03:43:51.180Z,20.60
2019-03-19T03:44:51.167Z,19.30
2019-03-19T03:45:51.176Z,19.80
2019-03-19T03:46:51.155Z,19.90
2019-03-19T03:47:51.149Z,18.90
2019-03-19T03:48:51.120Z,20.00
2019-03-19T03:49:51.107Z,18.80
2019-03-19T03:50:51.102Z,18.00
2019-03-19T03:51:51.123Z,20.70
2019-03-19T03:52:51.075Z,17.50
2019-03-19T03:53:51.065Z,20.50
2019-03-19T03:54:51.055Z,20.30
2019-03-19T03:55:51.048Z,22.70
2019-03-19T03:57:01.194Z,18.90
2019-03-19T03:57:52.049Z,22.00
2019-03-19T03:59:00.654Z,18.00
2019-03-19T03:59:52.000Z,17.90
2019-03-19T04:00:51.019Z,20.50
2019-03-19T04:01:51.018Z,17.50
2019-03-19T04:02:50.974Z,24.50
2019-03-19T04:03:50.980Z,18.20
2019-03-19T04:04:50.966Z,20.50
2019-03-19T04:05:50.936Z,22.30
2019-03-19T04:06:50.954Z,20.10
2019-03-19T04:07:50.908Z,25.80
2019-03-19T04:08:50.902Z,20.20
2019-03-19T04:09:50.917Z,20.80
2019-03-19T04:10:50.901Z,23.30
2019-03-19T04:11:50.888Z,23.40
2019-03-19T04:12:50.866Z,21.30
2019-03-19T04:13:50.842Z,20.40
2019-03-19T04:14:50.879Z,24.00
2019-03-19T04:15:50.855Z,23.90
2019-03-19T04:16:50.815Z,20.50
2019-03-19T04:17:50.820Z,24.20
2019-03-19T04:18:50.818Z,22.50
2019-03-19T04:19:50.822Z,23.40
2019-03-19T04:20:50.793Z,22.60
2019-03-19T04:21:50.787Z,21.10
2019-03-19T04:22:50.761Z,25.00
2019-03-19T04:23:50.738Z,24.20
2019-03-19T04:24:50.747Z,20.70
2019-03-19T04:25:50.723Z,22.20
2019-03-19T04:26:50.726Z,23.50
2019-03-19T04:27:50.738Z,21.20
2019-03-19T04:28:50.713Z,21.10
2019-03-19T04:29:50.684Z,24.50
2019-03-19T04:30:50.661Z,25.80
2019-03-19T04:31:50.646Z,23.30
2019-03-19T04:32:50.672Z,19.40
2019-03-19T04:33:50.670Z,18.70
2019-03-19T04:34:50.634Z,20.70
2019-03-19T04:35:50.618Z,21.70
2019-03-19T04:36:50.610Z,22.10
2019-03-19T04:37:50.584Z,28.00
2019-03-19T04:38:50.635Z,29.10
2019-03-19T04:39:50.580Z,26.20
2019-03-19T04:40:50.565Z,21.00
2019-03-19T04:41:50.540Z,22.80
2019-03-19T04:42:50.527Z,24.10
2019-03-19T04:43:50.532Z,22.60
2019-03-19T04:44:50.512Z,21.90
2019-03-19T04:45:50.520Z,27.40
2019-03-19T04:46:50.482Z,19.30
2019-03-19T04:47:50.486Z,21.50
2019-03-19T04:48:50.490Z,22.30
2019-03-19T04:49:50.457Z,25.10
2019-03-19T04:50:50.437Z,22.60
2019-03-19T04:51:50.479Z,23.30
2019-03-19T04:52:50.417Z,21.70
2019-03-19T04:53:50.407Z,22.00
2019-03-19T04:54:50.409Z,22.20
2019-03-19T04:55:50.389Z,22.70
2019-03-19T04:56:50.376Z,19.00
2019-03-19T04:57:50.435Z,23.10
2019-03-19T04:58:50.361Z,22.00
2019-03-19T04:59:50.361Z,21.20
2019-03-19T05:00:50.339Z,18.10
2019-03-19T05:01:50.335Z,21.10
2019-03-19T05:02:50.309Z,22.30
2019-03-19T05:03:50.311Z,19.20
2019-03-19T05:04:50.292Z,21.40
2019-03-19T05:05:50.293Z,23.60
2019-03-19T05:06:50.266Z,19.20
2019-03-19T05:07:50.257Z,18.50
2019-03-19T05:08:50.278Z,21.50
2019-03-19T05:09:50.258Z,23.20
2019-03-19T05:10:50.233Z,22.50
2019-03-19T05:11:50.247Z,18.40
2019-03-19T05:12:50.229Z,18.20
2019-03-19T05:13:50.194Z,21.30
2019-03-19T05:14:50.183Z,18.80
2019-03-19T05:15:50.203Z,22.10
2019-03-19T05:16:50.173Z,21.30
2019-03-19T05:17:50.151Z,18.30
2019-03-19T05:18:50.148Z,23.70
2019-03-19T05:19:50.128Z,20.10
2019-03-19T05:20:50.112Z,24.70
2019-03-19T05:21:50.121Z,24.10
2019-03-19T05:22:50.111Z,22.50
2019-03-19T05:23:50.086Z,21.20
2019-03-19T05:24:50.080Z,20.80
2019-03-19T05:25:50.081Z,27.90
2019-03-19T05:26:50.051Z,22.00
2019-03-19T05:27:50.087Z,17.70
2019-03-19T05:28:50.038Z,25.40
2019-03-19T05:29:50.023Z,23.30
2019-03-19T05:30:50.003Z,26.70
2019-03-19T05:31:50.002Z,21.60
2019-03-19T05:32:49.983Z,25.00
2019-03-19T05:33:49.995Z,22.20
2019-03-19T05:34:49.983Z,23.10
2019-03-19T05:35:49.969Z,71.60
2019-03-19T05:36:49.948Z,64.80
2019-03-19T05:37:49.947Z,58.20
2019-03-19T05:38:49.931Z,50.80
2019-03-19T05:39:49.935Z,43.60
2019-03-19T05:40:49.905Z,42.00
2019-03-19T05:41:49.889Z,38.60
2019-03-19T05:42:49.879Z,34.20
2019-03-19T05:43:49.866Z,43.10
2019-03-19T05:44:49.850Z,33.70
2019-03-19T05:45:49.856Z,36.70
2019-03-19T05:46:49.830Z,33.20
2019-03-19T05:47:49.851Z,28.40
2019-03-19T05:48:49.822Z,27.60
2019-03-19T05:49:49.802Z,27.30
2019-03-19T05:50:49.785Z,28.70
2019-03-19T05:51:49.808Z,31.90
2019-03-19T05:52:49.790Z,29.20
2019-03-19T05:53:49.761Z,27.60
2019-03-19T05:54:49.741Z,26.70
2019-03-19T05:55:49.731Z,27.50
2019-03-19T05:56:49.719Z,29.70
2019-03-19T05:57:50.648Z,29.10
2019-03-19T05:58:49.714Z,26.40
2019-03-19T05:59:49.689Z,26.80
2019-03-19T06:00:49.686Z,24.30
2019-03-19T06:01:49.679Z,23.80
2019-03-19T06:02:49.673Z,26.00
2019-03-19T06:03:49.669Z,23.80
2019-03-19T06:04:49.634Z,21.80
2019-03-19T06:05:49.631Z,23.80
2019-03-19T06:06:49.631Z,22.40
2019-03-19T06:07:49.615Z,22.70
2019-03-19T06:08:49.600Z,25.50
2019-03-19T06:09:49.600Z,23.50
2019-03-19T06:10:49.574Z,24.00
2019-03-19T06:11:49.630Z,26.10
2019-03-19T06:12:49.564Z,27.70
2019-03-19T06:13:49.537Z,23.00
2019-03-19T06:14:49.523Z,27.10
2019-03-19T06:15:49.551Z,24.30
2019-03-19T06:16:49.516Z,21.10
2019-03-19T06:17:49.504Z,23.80
2019-03-19T06:18:49.483Z,22.60
2019-03-19T06:19:49.468Z,24.20
2019-03-19T06:20:49.476Z,25.30
2019-03-19T06:21:49.469Z,24.20
2019-03-19T06:22:49.436Z,24.00
2019-03-19T06:23:49.429Z,25.60
2019-03-19T06:24:49.413Z,25.30
2019-03-19T06:25:49.400Z,21.90
2019-03-19T06:26:49.413Z,23.60
2019-03-19T06:27:59.562Z,22.30
2019-03-19T06:28:50.392Z,18.90
2019-03-19T06:29:49.357Z,17.60
2019-03-19T06:30:49.381Z,22.70
2019-03-19T06:31:49.352Z,20.20
2019-03-19T06:32:49.326Z,20.90
2019-03-19T06:33:49.331Z,22.90
2019-03-19T06:34:49.309Z,24.00
2019-03-19T06:35:49.288Z,21.00
2019-03-19T06:36:49.286Z,23.50
2019-03-19T06:37:49.267Z,22.20
2019-03-19T06:38:49.291Z,24.50
2019-03-19T06:39:50.804Z,21.70
2019-03-19T06:40:49.254Z,20.50
2019-03-19T06:41:49.229Z,21.80
2019-03-19T06:42:49.246Z,22.20
2019-03-19T06:43:49.201Z,23.80
2019-03-19T06:44:49.196Z,20.30
2019-03-19T06:45:49.208Z,21.00
2019-03-19T06:46:49.188Z,22.90
2019-03-19T06:47:49.157Z,20.00
2019-03-19T06:48:49.154Z,24.60
2019-03-19T06:49:49.151Z,23.50
2019-03-19T06:50:49.143Z,25.00
2019-03-19T06:51:49.155Z,23.80
2019-03-19T06:52:49.114Z,22.30
2019-03-19T06:53:49.096Z,23.40
2019-03-19T06:54:49.082Z,20.10
2019-03-19T06:55:49.075Z,22.50
2019-03-19T06:56:49.058Z,19.90
2019-03-19T06:57:49.088Z,21.70
2019-03-19T06:58:49.034Z,20.40
2019-03-19T06:59:49.038Z,20.20
2019-03-19T07:00:49.018Z,22.50
2019-03-19T07:01:49.001Z,21.90
2019-03-19T07:02:49.003Z,20.70
2019-03-19T07:03:49.009Z,24.20
2019-03-19T07:04:48.985Z,20.30
2019-03-19T07:05:48.959Z,19.10
2019-03-19T07:06:48.949Z,21.60
2019-03-19T07:07:48.943Z,22.00
2019-03-19T07:08:48.934Z,24.00
2019-03-19T07:09:48.936Z,21.70
2019-03-19T07:10:48.901Z,22.80
2019-03-19T07:11:48.907Z,23.20
2019-03-19T07:12:48.883Z,18.40
2019-03-19T07:13:48.872Z,18.80
2019-03-19T07:14:48.867Z,19.30
2019-03-19T07:15:48.868Z,19.10
2019-03-19T07:16:48.835Z,22.90
2019-03-19T07:17:48.836Z,20.80
2019-03-19T07:18:48.817Z,19.30
2019-03-19T07:19:48.811Z,19.90
2019-03-19T07:20:48.794Z,20.80
2019-03-19T07:21:48.816Z,17.70
2019-03-19T07:22:48.772Z,17.70
2019-03-19T07:23:48.777Z,17.50
2019-03-19T07:24:48.752Z,21.20
2019-03-19T07:25:48.772Z,16.90
2019-03-19T07:26:48.730Z,19.30
2019-03-19T07:27:48.752Z,17.10
2019-03-19T07:28:48.704Z,21.70
2019-03-19T07:29:48.697Z,19.60
2019-03-19T07:30:48.686Z,21.80
2019-03-19T07:31:48.680Z,22.50
2019-03-19T07:32:48.690Z,21.90
2019-03-19T07:33:48.668Z,19.70
2019-03-19T07:34:48.645Z,20.90
2019-03-19T07:35:48.648Z,20.00
2019-03-19T07:36:48.633Z,17.80
2019-03-19T07:37:48.615Z,21.70
2019-03-19T07:38:48.603Z,19.70
2019-03-19T07:39:48.626Z,20.80
2019-03-19T07:40:48.593Z,21.20
2019-03-19T07:41:48.582Z,18.40
2019-03-19T07:42:48.557Z,16.90
2019-03-19T07:43:48.552Z,18.00
2019-03-19T07:44:48.561Z,15.40
2019-03-19T07:45:48.557Z,17.40
2019-03-19T07:46:48.526Z,17.40
2019-03-19T07:47:48.503Z,15.40
2019-03-19T07:48:48.489Z,14.90
2019-03-19T07:49:48.481Z,17.10
2019-03-19T07:50:48.492Z,15.90
2019-03-19T07:51:48.473Z,17.60
2019-03-19T07:52:48.448Z,17.20
2019-03-19T07:53:48.431Z,16.70
2019-03-19T07:54:48.426Z,15.00
2019-03-19T07:55:48.429Z,15.00
2019-03-19T07:56:48.395Z,14.30
2019-03-19T07:57:48.403Z,15.70
2019-03-19T07:58:48.370Z,17.50
2019-03-19T07:59:48.359Z,16.00
2019-03-19T08:00:48.431Z,12.50
2019-03-19T08:01:48.336Z,17.70
2019-03-19T08:02:48.329Z,14.80
2019-03-19T08:03:48.333Z,17.00
2019-03-19T08:04:48.326Z,14.80
2019-03-19T08:05:48.292Z,14.80
2019-03-19T08:06:48.275Z,14.50
2019-03-19T08:07:48.265Z,13.80
2019-03-19T08:08:48.255Z,14.00
2019-03-19T08:09:48.276Z,14.00
2019-03-19T08:10:48.258Z,15.60
2019-03-19T08:11:48.227Z,15.40
2019-03-19T08:12:48.222Z,16.20
2019-03-19T08:13:48.202Z,12.70
2019-03-19T08:14:48.218Z,16.30
2019-03-19T08:15:48.206Z,16.20
2019-03-19T08:16:48.175Z,13.40
2019-03-19T08:17:48.157Z,18.50
2019-03-19T08:18:48.148Z,14.60
2019-03-19T08:19:48.146Z,14.50
2019-03-19T08:20:48.123Z,15.50
2019-03-19T08:21:48.131Z,16.80
2019-03-19T08:22:48.104Z,14.70
2019-03-19T08:23:48.086Z,14.70
2019-03-19T08:24:48.129Z,14.80
2019-03-19T08:25:48.067Z,13.20
2019-03-19T08:26:49.162Z,13.50
2019-03-19T08:27:48.058Z,17.40
2019-03-19T08:28:55.306Z,13.30
2019-03-19T08:29:49.028Z,14.00
2019-03-19T08:30:48.011Z,12.40
2019-03-19T08:31:47.997Z,16.60
2019-03-19T08:32:48.007Z,15.90
2019-03-19T08:33:48.007Z,16.80
2019-03-19T08:34:47.961Z,15.60
2019-03-19T08:35:47.959Z,16.70
2019-03-19T08:36:47.946Z,15.10
2019-03-19T08:37:47.934Z,12.80
2019-03-19T08:38:47.918Z,15.20
2019-03-19T08:39:47.924Z,13.30
2019-03-19T08:40:47.908Z,15.10
2019-03-19T08:41:47.887Z,14.60
2019-03-19T08:42:47.886Z,12.10
2019-03-19T08:43:47.865Z,14.50
2019-03-19T08:44:47.850Z,11.60
2019-03-19T08:45:47.854Z,15.20
2019-03-19T08:46:47.826Z,14.60
2019-03-19T08:47:47.819Z,13.00
2019-03-19T08:48:47.806Z,14.90
2019-03-19T08:49:47.794Z,16.60
2019-03-19T08:50:47.783Z,13.50
2019-03-19T08:51:47.792Z,14.00
2019-03-19T08:52:47.784Z,16.30
2019-03-19T08:53:47.756Z,17.80
2019-03-19T08:54:47.739Z,15.40
2019-03-19T08:55:47.759Z,15.40
2019-03-19T08:56:47.717Z,14.70
2019-03-19T08:57:47.735Z,17.40
2019-03-19T08:58:47.716Z,16.80
2019-03-19T08:59:47.679Z,17.40
2019-03-19T09:00:47.666Z,13.80
2019-03-19T09:01:47.656Z,15.40
2019-03-19T09:02:47.647Z,13.30
2019-03-19T09:03:47.660Z,14.10
2019-03-19T09:04:47.623Z,14.30
2019-03-19T09:05:47.668Z,14.90
2019-03-19T09:06:47.598Z,13.60
2019-03-19T09:07:47.604Z,12.00
2019-03-19T09:08:47.573Z,14.50
2019-03-19T09:09:47.583Z,15.90
2019-03-19T09:10:47.550Z,14.40
2019-03-19T09:11:47.549Z,15.70
2019-03-19T09:12:48.746Z,15.10
2019-03-19T09:13:47.519Z,17.20
2019-03-19T09:14:47.505Z,14.00
2019-03-19T09:15:47.530Z,14.20
2019-03-19T09:16:47.506Z,14.60
2019-03-19T09:17:47.477Z,16.60
2019-03-19T09:18:47.459Z,16.10
2019-03-19T09:19:47.447Z,14.90
2019-03-19T09:20:47.440Z,16.20
2019-03-19T09:21:47.449Z,15.50
2019-03-19T09:22:47.417Z,11.00
2019-03-19T09:23:47.405Z,13.90
2019-03-19T09:24:47.415Z,16.20
2019-03-19T09:25:47.383Z,17.20
2019-03-19T09:26:47.373Z,16.80
2019-03-19T09:27:47.380Z,15.70
2019-03-19T09:28:47.347Z,16.60
2019-03-19T09:29:47.337Z,19.10
2019-03-19T09:30:47.334Z,13.90
2019-03-19T09:31:47.318Z,13.90
2019-03-19T09:32:47.304Z,17.00
2019-03-19T09:33:47.310Z,14.90
2019-03-19T09:34:47.290Z,17.90
2019-03-19T09:35:47.273Z,12.20
2019-03-19T09:36:56.953Z,13.80
2019-03-19T09:37:57.629Z,14.00
2019-03-19T09:38:48.248Z,15.40
2019-03-19T09:39:47.238Z,15.60
2019-03-19T09:40:48.096Z,14.20
2019-03-19T09:41:47.207Z,14.80
2019-03-19T09:42:47.193Z,15.60
2019-03-19T09:43:47.185Z,14.70
2019-03-19T09:44:47.193Z,14.00
2019-03-19T09:45:47.163Z,14.80
2019-03-19T09:46:47.157Z,14.00
2019-03-19T09:47:47.142Z,10.80
2019-03-19T09:48:47.807Z,14.30
2019-03-19T09:49:47.117Z,12.10
2019-03-19T09:50:47.125Z,14.30
2019-03-19T09:51:47.093Z,12.20
2019-03-19T09:52:47.080Z,13.30
2019-03-19T09:53:47.073Z,11.10
2019-03-19T09:54:47.058Z,12.00
2019-03-19T09:55:47.050Z,13.80
2019-03-19T09:56:47.052Z,11.10
2019-03-19T09:57:47.032Z,12.40
2019-03-19T09:58:47.016Z,13.20
2019-03-19T09:59:47.011Z,15.00
2019-03-19T10:00:47.010Z,13.00
2019-03-19T10:01:46.982Z,12.40
2019-03-19T10:02:46.990Z,16.50
2019-03-19T10:03:46.964Z,17.00
2019-03-19T10:04:46.952Z,15.50
2019-03-19T10:05:46.938Z,11.90
2019-03-19T10:06:47.330Z,11.50
2019-03-19T10:07:46.914Z,11.00
2019-03-19T10:08:46.927Z,8.60
2019-03-19T10:09:46.896Z,10.80
2019-03-19T10:10:46.893Z,13.20
2019-03-19T10:11:46.870Z,8.90
2019-03-19T10:12:46.871Z,11.10
2019-03-19T10:13:46.856Z,10.70
2019-03-19T10:14:46.865Z,8.90
2019-03-19T10:15:46.829Z,11.20
2019-03-19T10:16:46.822Z,10.70
2019-03-19T10:17:46.805Z,10.10
2019-03-19T10:18:46.816Z,8.90
2019-03-19T10:19:46.783Z,10.70
2019-03-19T10:20:46.803Z,10.50
2019-03-19T10:21:46.767Z,11.30
2019-03-19T10:22:46.758Z,9.90
2019-03-19T10:23:46.744Z,11.40
2019-03-19T10:24:46.728Z,12.60
2019-03-19T10:25:46.716Z,13.30
2019-03-19T10:26:46.722Z,10.60
2019-03-19T10:27:46.707Z,9.60
2019-03-19T10:28:46.685Z,9.10
2019-03-19T10:29:46.674Z,8.10
2019-03-19T10:30:46.662Z,9.90
2019-03-19T10:31:46.649Z,10.40
2019-03-19T10:32:46.705Z,10.20
2019-03-19T10:33:46.639Z,8.60
2019-03-19T10:34:46.619Z,8.20
2019-03-19T10:35:46.607Z,8.30
2019-03-19T10:36:46.598Z,6.90
2019-03-19T10:37:46.582Z,9.30
2019-03-19T10:38:46.586Z,7.10
2019-03-19T10:39:46.561Z,6.60
2019-03-19T10:40:46.557Z,8.60
2019-03-19T10:41:46.542Z,6.80
2019-03-19T10:42:46.529Z,7.30
2019-03-19T10:43:46.516Z,6.30
2019-03-19T10:44:46.837Z,7.80
2019-03-19T10:45:46.505Z,7.60
2019-03-19T10:46:46.489Z,8.80
2019-03-19T10:47:46.521Z,7.20
2019-03-19T10:48:46.463Z,7.10
2019-03-19T10:49:46.451Z,6.30
2019-03-19T10:50:46.470Z,7.70
2019-03-19T10:51:46.433Z,7.60
2019-03-19T10:52:46.426Z,8.60
2019-03-19T10:53:46.407Z,9.70
2019-03-19T10:54:46.398Z,8.30
2019-03-19T10:55:46.385Z,10.10
2019-03-19T10:56:46.393Z,8.80
2019-03-19T10:57:46.409Z,9.60
2019-03-19T10:58:46.353Z,6.70
2019-03-19T10:59:49.426Z,6.70
2019-03-19T11:00:46.337Z,8.80
2019-03-19T11:01:46.319Z,7.10
2019-03-19T11:02:46.325Z,7.60
2019-03-19T11:03:46.298Z,9.50
2019-03-19T11:04:46.287Z,8.00
2019-03-19T11:05:46.292Z,9.30
2019-03-19T11:06:46.270Z,8.10
2019-03-19T11:07:46.252Z,5.90
2019-03-19T11:08:46.259Z,9.60
2019-03-19T11:09:46.233Z,7.20
2019-03-19T11:10:46.224Z,7.50
2019-03-19T11:11:46.211Z,7.60
2019-03-19T11:12:46.206Z,9.00
2019-03-19T11:13:46.188Z,9.10
2019-03-19T11:14:46.201Z,9.70
2019-03-19T11:15:46.167Z,8.50
2019-03-19T11:16:46.157Z,9.20
2019-03-19T11:17:46.144Z,10.40
2019-03-19T11:18:46.158Z,8.90
2019-03-19T11:19:46.161Z,11.20
2019-03-19T11:20:46.138Z,9.90
2019-03-19T11:21:46.098Z,9.80
2019-03-19T11:22:46.093Z,8.50
2019-03-19T11:23:46.080Z,8.20
2019-03-19T11:24:46.066Z,8.00
2019-03-19T11:25:54.143Z,9.30
2019-03-19T11:26:47.060Z,10.60
2019-03-19T11:27:46.035Z,8.40
2019-03-19T11:28:46.021Z,9.60
2019-03-19T11:29:46.018Z,8.70
2019-03-19T11:30:46.002Z,9.80
2019-03-19T11:31:45.990Z,8.90
2019-03-19T11:32:46.019Z,7.90
2019-03-19T11:33:47.704Z,9.80
2019-03-19T11:34:45.953Z,9.90
2019-03-19T11:35:45.944Z,9.10
2019-03-19T11:36:45.933Z,8.40
2019-03-19T11:37:45.916Z,10.50
2019-03-19T11:38:45.938Z,8.70
2019-03-19T11:39:45.900Z,9.80
2019-03-19T11:40:45.887Z,8.00
2019-03-19T11:41:45.874Z,8.20
2019-03-19T11:42:45.868Z,11.30
2019-03-19T11:43:45.860Z,8.30
2019-03-19T11:44:45.857Z,9.30
2019-03-19T11:45:45.827Z,8.70
2019-03-19T11:46:45.835Z,8.30
2019-03-19T11:47:45.805Z,8.50
2019-03-19T11:48:45.799Z,9.70
2019-03-19T11:49:45.782Z,9.00
2019-03-19T11:50:45.789Z,8.90
2019-03-19T11:51:45.760Z,8.90
2019-03-19T11:52:45.755Z,8.90
2019-03-19T11:53:45.745Z,9.30
2019-03-19T11:54:45.727Z,7.60
2019-03-19T11:55:45.715Z,7.60
2019-03-19T11:56:45.783Z,7.70
2019-03-19T11:57:45.692Z,6.00
2019-03-19T11:58:45.680Z,7.40
2019-03-19T11:59:45.667Z,8.30
2019-03-19T12:00:45.658Z,10.50
2019-03-19T12:01:45.655Z,8.50
2019-03-19T12:02:45.651Z,8.60
2019-03-19T12:03:45.625Z,6.80
2019-03-19T12:04:45.611Z,7.30
2019-03-19T12:05:45.596Z,7.50
2019-03-19T12:06:45.583Z,6.50
2019-03-19T12:07:45.576Z,8.20
2019-03-19T12:08:45.580Z,8.90
2019-03-19T12:09:45.567Z,9.20
2019-03-19T12:10:45.537Z,6.00
2019-03-19T12:11:45.534Z,7.50
2019-03-19T12:12:45.512Z,8.10
2019-03-19T12:13:45.507Z,8.90
2019-03-19T12:14:47.378Z,7.20
2019-03-19T12:15:45.479Z,6.80
2019-03-19T12:16:45.466Z,6.40
2019-03-19T12:17:45.453Z,7.20
2019-03-19T12:18:45.442Z,8.40
2019-03-19T12:19:45.426Z,6.90
2019-03-19T12:20:45.431Z,8.20
2019-03-19T12:21:45.404Z,9.20
2019-03-19T12:22:45.391Z,7.30
2019-03-19T12:23:45.386Z,8.00
2019-03-19T12:24:45.381Z,7.50
2019-03-19T12:25:45.371Z,7.00
2019-03-19T12:26:45.379Z,8.50
2019-03-19T12:27:45.340Z,10.50
2019-03-19T12:28:45.324Z,9.30
2019-03-19T12:29:45.321Z,8.00
2019-03-19T12:30:45.304Z,6.80
2019-03-19T12:31:45.291Z,8.80
2019-03-19T12:32:45.310Z,6.50
2019-03-19T12:33:45.279Z,8.20
2019-03-19T12:34:45.260Z,7.50
2019-03-19T12:35:45.247Z,7.60
2019-03-19T12:36:45.237Z,9.80
2019-03-19T12:37:45.263Z,6.00
2019-03-19T12:38:45.230Z,7.40
2019-03-19T12:39:45.200Z,8.50
2019-03-19T12:40:45.192Z,7.40
2019-03-19T12:41:45.190Z,7.60
2019-03-19T12:42:45.182Z,8.40
2019-03-19T12:43:45.187Z,7.60
2019-03-19T12:44:45.168Z,8.70
2019-03-19T12:45:45.142Z,6.20
2019-03-19T12:46:45.126Z,7.40
2019-03-19T12:47:45.114Z,7.10
2019-03-19T12:48:45.108Z,6.80
2019-03-19T12:49:45.087Z,8.30
2019-03-19T12:50:45.103Z,8.80
2019-03-19T12:51:45.066Z,8.60
2019-03-19T12:52:45.066Z,8.00
2019-03-19T12:53:45.041Z,6.60
2019-03-19T12:54:45.035Z,6.10
2019-03-19T12:55:45.020Z,6.10
2019-03-19T12:56:45.071Z,6.60
2019-03-19T12:57:45.001Z,8.00